Aérodrome :
LOGIN :

S'inscrire | Disclaimer

   EN    FR    IT 

 










Légende :    VFR   VFR Marginal   IFR   IFR Intensif   IFR Très Intensif
Visi : 
Plafond : 
>= 8 km
>= 3000ft
5 à 8 km
1000 à 3000 ft
1500m à 5 km
500 à 1000 ft
800 à 1500m
200 à 500 ft
< 800m
< 200 ft
Symboles :   Orages  Brouillard  Fortes neiges  Fortes précipitations  Vent > 20 kt
SIGMETs :   Divers  Orages  Givrage  Turbulence  Onde Orograph.  Cendres Volcan.






- Altitude de l'aérodrome : 172 ft
- Code IATA : ODS


UKOO - Odesa

DERNIER METAR :
  • 260100Z 34003MPS 9999 SCT040 11/10 Q1018 R34/090060 NOSIG

METARs EXPIRÉS :
  • 260030Z 34003MPS CAVOK 12/10 Q1018 R34/090060 NOSIG
  • 260000Z 34003MPS CAVOK 12/09 Q1018 R34/090060 NOSIG
  • 252330Z 32003MPS CAVOK 12/09 Q1018 R34/090060 NOSIG
  • 252300Z 33002MPS CAVOK 13/10 Q1018 R34/090060 NOSIG
  • 252230Z 00000MPS CAVOK 13/10 Q1018 R34/090060 NOSIG

TAF TAF UKOO
Valide du 26 à 00h jusqu'au 27 à 00h UTC


252304Z 2600/2624 34003MPS 2100 -SHRA BR SCT003 BKN007 SCT015CB
BECMG 2606/2607 05003MPS 6000 NSW
PROB40
TEMPO 2607/2618 VRB08G17MPS 1000 TSRAGR SQ BKN003 BKN015CB



MET'MAP, la Météo Aéronautique d'un coup d'oeil ! - Copyright ORBIFLY Décembre 2007 - Disclaimer

ORBIFLY MET'MAP TEAM :

Programmation & Développement : Alexandra Zaïnal
Sur une idée originale de : Baudouin d'Aumeries
Assistance à la programmation : Marc-Olivier Méhu
Soutien technique & logistique : Manuel Goepfert

Contact : metmap@orbifly.com




SOURCES & CREDITS :

   NOAA